Time;durP1;ratioP1;P1;durP2;ratioP2;P2;SDS_P1;SDS_P2;PMS_P1;PMS_P2;Temp;Humidity;BMP_temperature;BMP_pressure;BME280_temperature;BME280_humidity;BME280_pressure;Samples;Min_cycle;Max_cycle;Signal;HPM_P1;HPM_P2
2022/01/16 00:00:25;;;;;;;93.65;47.25;;;6.50;99.90;;;;;;5051546;28;20079;-54
2022/01/16 00:06:52;;;;;;;88.88;43.75;;;6.50;99.90;;;;;;5051639;28;20036;-53
2022/01/16 00:09:57;;;;;;;78.50;39.38;;;6.50;99.90;;;;;;5051046;28;20048;-55
2022/01/16 00:13:01;;;;;;;89.97;42.88;;;6.50;99.90;;;;;;5052082;28;20510;-53
2022/01/16 00:16:05;;;;;;;72.65;39.40;;;6.50;99.90;;;;;;5051273;28;20036;-52
2022/01/16 00:19:09;;;;;;;74.50;37.35;;;6.60;99.90;;;;;;5050887;28;20048;-54
2022/01/16 00:22:15;;;;;;;68.07;35.40;;;6.80;99.90;;;;;;5051828;28;20071;-51
2022/01/16 00:25:19;;;;;;;60.92;35.00;;;6.90;99.90;;;;;;5051306;28;20668;-53
2022/01/16 00:28:24;;;;;;;57.85;32.05;;;7.00;99.90;;;;;;5050483;28;20052;-53
2022/01/16 00:31:28;;;;;;;54.60;30.65;;;7.10;99.90;;;;;;5051039;28;20047;-54
2022/01/16 00:34:32;;;;;;;49.65;29.20;;;7.20;99.90;;;;;;5051436;28;20040;-52
2022/01/16 00:37:39;;;;;;;58.20;29.67;;;7.30;99.90;;;;;;5051016;28;20048;-53
2022/01/16 00:40:43;;;;;;;51.22;27.05;;;7.40;99.90;;;;;;5051300;28;20048;-55
2022/01/16 00:43:52;;;;;;;52.10;28.60;;;7.50;99.90;;;;;;5051384;28;20574;-55
2022/01/16 00:46:55;;;;;;;47.25;26.20;;;7.50;99.90;;;;;;5051185;28;20048;-54
2022/01/16 00:49:59;;;;;;;43.70;24.38;;;7.60;99.90;;;;;;5050406;28;20043;-52
2022/01/16 00:53:03;;;;;;;39.95;25.05;;;7.70;99.90;;;;;;5051100;28;20400;-53
2022/01/16 00:56:07;;;;;;;44.67;23.80;;;7.70;99.90;;;;;;5050841;28;20427;-52
2022/01/16 00:59:12;;;;;;;46.40;22.38;;;7.70;99.90;;;;;;5050263;28;20047;-52
2022/01/16 01:02:16;;;;;;;40.70;22.70;;;7.80;99.90;;;;;;5050672;28;20036;-53
2022/01/16 01:05:20;;;;;;;58.58;25.17;;;7.80;99.90;;;;;;5050679;28;20064;-53
2022/01/16 01:08:27;;;;;;;41.95;24.77;;;7.80;99.90;;;;;;5049741;28;20419;-53
2022/01/16 01:11:31;;;;;;;39.55;22.65;;;7.90;99.90;;;;;;5050728;28;20502;-53
2022/01/16 01:15:03;;;;;;;36.75;21.63;;;7.90;99.90;;;;;;5050584;28;20047;-53
2022/01/16 01:18:06;;;;;;;33.15;18.65;;;7.90;99.90;;;;;;5049990;28;20059;-51
2022/01/16 01:21:16;;;;;;;34.55;19.52;;;7.90;99.90;;;;;;5050724;28;20050;-53
2022/01/16 01:24:22;;;;;;;37.33;20.73;;;7.90;99.90;;;;;;5050025;28;20048;-57
2022/01/16 01:27:31;;;;;;;40.47;19.85;;;7.90;99.90;;;;;;5050204;28;20048;-56
2022/01/16 01:30:37;;;;;;;38.33;18.65;;;7.90;99.90;;;;;;5050753;28;20048;-56
2022/01/16 01:33:41;;;;;;;32.25;19.17;;;7.90;99.90;;;;;;5050761;28;20040;-57
2022/01/16 01:36:48;;;;;;;36.63;20.50;;;7.90;99.90;;;;;;5050551;28;20443;-56
2022/01/16 01:39:52;;;;;;;33.03;16.98;;;7.90;99.90;;;;;;5049682;28;20040;-55
2022/01/16 01:52:45;;;;;;;34.17;19.88;;;8.00;99.90;;;;;;5049986;28;20056;-55
2022/01/16 01:55:49;;;;;;;33.80;19.48;;;8.00;99.90;;;;;;5049718;28;20052;-55
2022/01/16 01:58:58;;;;;;;36.95;20.23;;;8.00;99.90;;;;;;5049365;28;20044;-54
2022/01/16 02:02:02;;;;;;;39.05;22.77;;;8.00;99.90;;;;;;5050117;28;20055;-55
2022/01/16 02:05:07;;;;;;;37.15;21.83;;;7.90;99.90;;;;;;5049580;28;20051;-56
2022/01/16 02:08:11;;;;;;;46.97;24.92;;;7.90;99.90;;;;;;5048578;28;20416;-56
2022/01/16 02:11:16;;;;;;;46.28;25.77;;;7.90;99.90;;;;;;5049816;28;20043;-55
2022/01/16 02:31:24;;;;;;;41.47;25.15;;;7.90;99.90;;;;;;5027686;28;20047;-51
2022/01/16 02:37:38;;;;;;;48.10;27.30;;;7.90;99.90;;;;;;5049357;28;20039;-52
2022/01/16 02:40:53;;;;;;;43.83;25.13;;;7.90;99.90;;;;;;5049489;28;20052;-52
2022/01/16 02:43:58;;;;;;;48.63;25.05;;;7.80;99.90;;;;;;5049378;28;20048;-52
2022/01/16 02:47:03;;;;;;;45.97;25.73;;;7.80;99.90;;;;;;5048985;28;20048;-53
2022/01/16 02:50:07;;;;;;;56.67;27.35;;;7.80;99.90;;;;;;5048696;28;20040;-53
2022/01/16 02:53:12;;;;;;;49.60;28.10;;;7.80;99.90;;;;;;5049674;28;20044;-54
2022/01/16 02:56:17;;;;;;;46.63;27.73;;;7.80;99.90;;;;;;5049215;28;20048;-53
2022/01/16 02:59:22;;;;;;;53.22;27.88;;;7.80;99.90;;;;;;5048498;28;20048;-53
2022/01/16 03:02:25;;;;;;;47.65;26.98;;;7.70;99.90;;;;;;5048959;28;20056;-54
2022/01/16 03:05:31;;;;;;;49.17;26.90;;;7.80;99.90;;;;;;5049411;28;20103;-54
2022/01/16 03:08:35;;;;;;;46.03;25.83;;;7.70;99.90;;;;;;5048403;28;20071;-53
2022/01/16 03:11:45;;;;;;;46.00;25.77;;;7.80;99.90;;;;;;5049405;28;20048;-51
2022/01/16 03:14:50;;;;;;;55.17;27.90;;;7.80;99.90;;;;;;5048653;28;20407;-52
2022/01/16 03:24:55;;;;;;;52.80;29.17;;;7.80;99.90;;;;;;5052573;28;20056;-52
2022/01/16 03:28:00;;;;;;;50.80;28.90;;;7.80;99.90;;;;;;5052217;28;20044;-52
2022/01/16 03:31:05;;;;;;;52.85;30.30;;;7.80;99.90;;;;;;5052720;28;20040;-52
2022/01/16 03:34:08;;;;;;;50.60;27.83;;;7.80;99.90;;;;;;5052297;28;20040;-54
2022/01/16 03:37:13;;;;;;;51.40;29.33;;;7.80;99.90;;;;;;5052753;28;20051;-53
2022/01/16 03:40:20;;;;;;;50.90;28.20;;;7.80;99.90;;;;;;5051419;28;20522;-56
2022/01/16 03:43:24;;;;;;;54.53;28.27;;;7.80;99.90;;;;;;5053023;28;20028;-51
2022/01/16 03:46:35;;;;;;;48.72;28.48;;;7.80;99.90;;;;;;5052678;28;20052;-52
2022/01/16 03:49:40;;;;;;;49.40;27.73;;;7.80;99.90;;;;;;5051491;28;20411;-53
2022/01/16 03:52:44;;;;;;;50.15;25.58;;;7.80;99.90;;;;;;5052292;28;20052;-55
2022/01/16 03:55:48;;;;;;;45.22;25.88;;;7.80;99.90;;;;;;5052218;28;20048;-55
2022/01/16 03:58:52;;;;;;;43.65;23.23;;;7.80;99.90;;;;;;5051136;28;20048;-53
2022/01/16 04:01:56;;;;;;;43.28;25.33;;;7.80;99.90;;;;;;5051924;28;20037;-56
2022/01/16 04:05:00;;;;;;;42.83;24.38;;;7.80;99.90;;;;;;5051581;28;20044;-52
2022/01/16 04:08:05;;;;;;;43.58;24.38;;;7.80;99.90;;;;;;5051335;28;20530;-52
2022/01/16 04:11:08;;;;;;;44.83;22.98;;;7.80;99.90;;;;;;5051849;28;20052;-55
2022/01/16 04:14:21;;;;;;;38.17;21.73;;;7.80;99.90;;;;;;5051699;28;20048;-55
2022/01/16 04:17:26;;;;;;;46.10;22.25;;;7.80;99.90;;;;;;5051841;28;20546;-53
2022/01/16 04:20:32;;;;;;;37.90;21.05;;;7.80;99.90;;;;;;5051222;28;20044;-56
2022/01/16 04:23:37;;;;;;;34.97;22.08;;;7.80;99.90;;;;;;5051853;28;20530;-53
2022/01/16 04:26:41;;;;;;;33.72;19.58;;;7.80;99.90;;;;;;5051633;28;20423;-55
2022/01/16 04:29:45;;;;;;;36.85;21.77;;;7.80;99.90;;;;;;5050680;28;20052;-53
2022/01/16 04:32:49;;;;;;;43.33;22.65;;;7.80;99.90;;;;;;5051425;28;20052;-52
2022/01/16 04:35:53;;;;;;;40.03;22.77;;;7.70;99.90;;;;;;5051344;28;20443;-53
2022/01/16 04:38:58;;;;;;;40.15;23.33;;;7.80;99.90;;;;;;5050806;28;20055;-54
2022/01/16 04:45:28;;;;;;;40.28;23.33;;;7.80;99.90;;;;;;5051129;28;20048;-52
2022/01/16 04:48:32;;;;;;;44.65;21.95;;;7.80;99.90;;;;;;5050365;28;20048;-52
2022/01/16 04:51:36;;;;;;;43.65;22.05;;;7.80;99.90;;;;;;5051051;28;20032;-52
2022/01/16 04:54:40;;;;;;;39.08;22.67;;;7.90;99.90;;;;;;5051002;28;20068;-54
2022/01/16 04:57:44;;;;;;;41.35;23.08;;;7.80;99.90;;;;;;5050946;28;20126;-55
2022/01/16 05:00:47;;;;;;;37.05;21.75;;;7.80;99.90;;;;;;5050643;28;20043;-54
2022/01/16 05:03:52;;;;;;;40.05;23.30;;;7.80;99.90;;;;;;5050434;28;20514;-52
2022/01/16 05:06:57;;;;;;;42.22;23.48;;;7.80;99.90;;;;;;5050928;28;20044;-52
2022/01/16 05:10:00;;;;;;;41.33;24.10;;;7.80;99.90;;;;;;5050381;28;20044;-55
2022/01/16 05:17:00;;;;;;;41.20;24.02;;;7.80;99.90;;;;;;5051088;28;20404;-55
2022/01/16 05:19:57;;;;;;;43.00;23.70;;;7.80;99.90;;;;;;5050051;28;20044;-53
2022/01/16 05:23:01;;;;;;;40.72;22.67;;;7.80;99.90;;;;;;5051038;28;20051;-52
2022/01/16 05:26:06;;;;;;;43.25;24.35;;;7.80;99.90;;;;;;5050413;28;20044;-56
2022/01/16 05:29:12;;;;;;;42.20;23.77;;;7.80;99.90;;;;;;5049698;28;20047;-52
2022/01/16 05:32:16;;;;;;;40.60;22.90;;;7.80;99.90;;;;;;5049861;28;20518;-51
2022/01/16 05:35:21;;;;;;;40.83;24.20;;;7.80;99.90;;;;;;5050068;28;20299;-55
2022/01/16 05:38:26;;;;;;;46.33;23.80;;;7.80;99.90;;;;;;5049825;28;20044;-52
2022/01/16 05:41:29;;;;;;;40.75;22.00;;;7.70;99.90;;;;;;5049240;28;20056;-51
2022/01/16 05:44:34;;;;;;;38.42;22.25;;;7.60;99.90;;;;;;5050295;28;20104;-56
2022/01/16 05:47:38;;;;;;;36.20;21.48;;;7.60;99.90;;;;;;5049928;28;20051;-54
2022/01/16 05:50:42;;;;;;;44.72;21.70;;;7.60;99.90;;;;;;5049886;28;20040;-55
2022/01/16 05:53:48;;;;;;;39.03;21.73;;;7.50;99.90;;;;;;5050209;28;20040;-56
2022/01/16 05:56:52;;;;;;;41.95;22.23;;;7.50;99.90;;;;;;5049522;28;20036;-53
2022/01/16 05:59:56;;;;;;;37.75;20.50;;;7.40;99.90;;;;;;5049122;28;20519;-53
2022/01/16 06:03:00;;;;;;;33.15;19.65;;;7.40;99.90;;;;;;5049414;28;20510;-53
2022/01/16 06:06:04;;;;;;;37.45;21.15;;;7.40;99.90;;;;;;5050021;28;20518;-55
2022/01/16 06:09:09;;;;;;;35.33;20.38;;;7.40;99.90;;;;;;5048910;28;20408;-54
2022/01/16 06:12:13;;;;;;;29.85;18.75;;;7.30;99.90;;;;;;5049071;28;20040;-53
2022/01/16 06:15:17;;;;;;;38.72;20.05;;;7.40;99.90;;;;;;5049602;28;20043;-53
2022/01/16 06:18:22;;;;;;;32.90;19.63;;;7.40;99.90;;;;;;5048686;28;20412;-53
2022/01/16 06:21:27;;;;;;;30.23;16.80;;;7.40;99.90;;;;;;5049140;28;20447;-53
2022/01/16 06:24:32;;;;;;;27.23;16.98;;;7.30;99.90;;;;;;5049312;28;20044;-55
2022/01/16 06:27:36;;;;;;;29.13;16.52;;;7.20;99.90;;;;;;5048947;28;20056;-51
2022/01/16 06:30:41;;;;;;;30.52;18.27;;;7.20;99.90;;;;;;5049349;28;20112;-52
2022/01/16 06:33:46;;;;;;;29.67;17.58;;;7.10;99.90;;;;;;5049267;28;20051;-53
2022/01/16 06:36:51;;;;;;;30.38;17.48;;;7.10;99.90;;;;;;5049267;28;20051;-55
2022/01/16 06:39:55;;;;;;;29.27;17.20;;;7.10;99.90;;;;;;5048609;28;20043;-56
2022/01/16 06:43:00;;;;;;;33.95;17.58;;;7.10;99.90;;;;;;5048961;28;20060;-53
2022/01/16 06:46:04;;;;;;;28.52;18.20;;;7.10;99.90;;;;;;5049254;28;20048;-53
2022/01/16 06:49:10;;;;;;;25.27;15.10;;;7.20;99.90;;;;;;5048373;28;20048;-53
2022/01/16 06:52:15;;;;;;;26.98;16.15;;;7.10;99.90;;;;;;5051250;28;20395;-52
2022/01/16 06:55:18;;;;;;;25.52;15.48;;;7.20;99.90;;;;;;5053499;28;20510;-52
2022/01/16 06:58:22;;;;;;;23.25;15.30;;;7.10;99.90;;;;;;5052868;28;20063;-55
2022/01/16 07:01:27;;;;;;;20.98;14.43;;;7.10;99.90;;;;;;5053377;28;20044;-52
2022/01/16 07:04:32;;;;;;;24.15;13.93;;;7.10;99.90;;;;;;5053208;28;20052;-55
2022/01/16 07:07:37;;;;;;;24.65;14.75;;;7.10;99.90;;;;;;5053079;28;20060;-51
2022/01/16 07:10:42;;;;;;;23.92;13.68;;;7.20;99.90;;;;;;5052931;28;20047;-53
2022/01/16 07:13:46;;;;;;;21.88;13.40;;;7.30;99.90;;;;;;5052732;28;20048;-52
2022/01/16 07:16:50;;;;;;;23.45;14.00;;;7.50;99.90;;;;;;5052538;28;20040;-55
2022/01/16 07:19:54;;;;;;;20.23;12.48;;;8.40;99.90;;;;;;5052231;28;20511;-54
2022/01/16 07:22:58;;;;;;;17.45;11.60;;;9.60;99.90;;;;;;5052389;28;20055;-55
2022/01/16 07:26:02;;;;;;;30.20;17.95;;;11.40;99.90;;;;;;5052574;28;20048;-56
2022/01/16 07:29:07;;;;;;;27.20;16.70;;;13.20;99.90;;;;;;5051769;28;20514;-54
2022/01/16 07:32:11;;;;;;;15.55;9.77;;;14.70;99.90;;;;;;5052522;28;20120;-53
2022/01/16 07:35:15;;;;;;;12.43;8.35;;;15.90;99.90;;;;;;5052642;28;20060;-57
2022/01/16 07:38:19;;;;;;;18.75;9.95;;;16.70;99.90;;;;;;5051854;28;20048;-55
2022/01/16 07:41:23;;;;;;;14.35;9.30;;;17.60;99.90;;;;;;5052728;28;20526;-53
2022/01/16 07:44:27;;;;;;;11.88;8.95;;;18.60;99.90;;;;;;5052305;28;20096;-56
2022/01/16 07:47:31;;;;;;;13.63;9.23;;;20.00;99.00;;;;;;5052676;28;20534;-54
2022/01/16 07:50:38;;;;;;;27.10;17.45;;;20.90;96.00;;;;;;5052660;28;20044;-53
2022/01/16 07:53:42;;;;;;;24.63;16.45;;;21.50;93.60;;;;;;5051880;28;20040;-56
2022/01/16 07:56:46;;;;;;;24.20;18.60;;;22.10;92.80;;;;;;5052226;28;20044;-55
2022/01/16 07:59:51;;;;;;;26.30;19.33;;;22.50;91.00;;;;;;5051392;28;20507;-56
2022/01/16 08:02:57;;;;;;;25.92;19.65;;;22.00;90.40;;;;;;5051039;28;20392;-56
2022/01/16 08:06:01;;;;;;;22.27;18.17;;;22.40;88.80;;;;;;5051774;28;20044;-56
2022/01/16 08:09:05;;;;;;;24.83;17.95;;;22.90;88.40;;;;;;5050923;28;20052;-55
2022/01/16 08:12:11;;;;;;;23.75;19.23;;;24.00;86.70;;;;;;5051648;28;20036;-56
2022/01/16 08:15:15;;;;;;;23.83;18.48;;;25.20;84.40;;;;;;5050744;28;20044;-57
2022/01/16 08:18:19;;;;;;;22.92;18.23;;;25.00;81.80;;;;;;5051263;28;20048;-56
2022/01/16 08:21:23;;;;;;;22.30;17.85;;;24.70;79.90;;;;;;5051811;28;20063;-57
2022/01/16 08:24:27;;;;;;;22.48;16.95;;;23.80;83.10;;;;;;5051169;28;20048;-53
2022/01/16 08:27:31;;;;;;;24.50;17.10;;;24.80;81.60;;;;;;5051822;28;20040;-57
2022/01/16 08:30:35;;;;;;;23.35;17.70;;;25.60;80.40;;;;;;5051729;28;20052;-57
2022/01/16 08:33:39;;;;;;;24.40;19.58;;;25.80;79.30;;;;;;5051675;28;20044;-57
2022/01/16 08:36:44;;;;;;;24.65;19.60;;;24.70;76.60;;;;;;5051507;28;20044;-56
2022/01/16 08:39:48;;;;;;;21.70;17.90;;;25.30;76.00;;;;;;5050816;28;20052;-57
2022/01/16 08:42:52;;;;;;;25.90;18.60;;;27.00;74.20;;;;;;5051533;28;20407;-56
2022/01/16 08:45:56;;;;;;;25.02;20.08;;;25.50;73.60;;;;;;5051162;28;20047;-56
2022/01/16 08:49:01;;;;;;;27.75;22.23;;;22.80;76.90;;;;;;5050495;28;20040;-55
2022/01/16 08:52:05;;;;;;;30.73;22.80;;;17.60;82.30;;;;;;5050808;28;20550;-55
2022/01/16 08:55:10;;;;;;;33.40;23.25;;;15.10;90.00;;;;;;5050559;28;20044;-55
2022/01/16 08:58:15;;;;;;;33.88;24.55;;;13.10;93.90;;;;;;5050239;28;20040;-56
2022/01/16 09:01:19;;;;;;;37.88;24.80;;;12.80;96.00;;;;;;5050850;28;20047;-55
2022/01/16 09:04:24;;;;;;;33.70;22.75;;;12.50;98.60;;;;;;5050439;28;20048;-54
2022/01/16 09:07:28;;;;;;;32.08;22.02;;;12.40;99.90;;;;;;5050967;28;20048;-54
2022/01/16 09:10:32;;;;;;;30.15;20.05;;;12.40;99.90;;;;;;5050602;28;20040;-54
2022/01/16 09:13:38;;;;;;;31.35;18.52;;;12.50;99.90;;;;;;5050458;28;20044;-53
2022/01/16 09:16:43;;;;;;;26.30;16.63;;;12.70;99.90;;;;;;5050020;28;20534;-53
2022/01/16 09:19:47;;;;;;;24.20;14.38;;;12.90;99.90;;;;;;5050118;28;20056;-53
2022/01/16 09:22:51;;;;;;;20.23;11.27;;;13.00;99.90;;;;;;5050986;28;20048;-53
2022/01/16 09:25:55;;;;;;;20.95;11.25;;;12.90;99.90;;;;;;5050032;28;20056;-52
2022/01/16 09:29:00;;;;;;;37.60;21.42;;;13.00;99.90;;;;;;5071976;22;20381;-57
2022/01/16 09:32:06;;;;;;;28.70;19.67;;;13.00;99.90;;;;;;5050639;28;20048;-58
2022/01/16 09:35:11;;;;;;;19.30;13.25;;;12.90;99.90;;;;;;5050153;28;20068;-58
2022/01/16 09:38:17;;;;;;;29.92;18.30;;;12.90;99.90;;;;;;5049884;28;20403;-57
2022/01/16 09:41:22;;;;;;;30.20;20.42;;;12.80;99.90;;;;;;5030143;28;20067;-57
2022/01/16 09:44:28;;;;;;;25.40;16.77;;;12.80;99.90;;;;;;5030349;28;20052;-59
2022/01/16 09:47:32;;;;;;;25.90;16.27;;;12.80;99.90;;;;;;5030519;28;20044;-58
2022/01/16 09:50:36;;;;;;;20.30;13.02;;;12.90;99.90;;;;;;5030237;28;20511;-57
2022/01/16 09:53:42;;;;;;;20.52;9.88;;;12.90;99.90;;;;;;5030284;28;20044;-57
2022/01/16 09:56:46;;;;;;;19.35;10.05;;;12.80;99.90;;;;;;5029338;28;20060;-60
2022/01/16 09:59:50;;;;;;;18.30;8.88;;;12.80;99.90;;;;;;5029443;28;20048;-59
2022/01/16 10:02:54;;;;;;;16.15;8.00;;;12.70;99.90;;;;;;5029908;28;20052;-60
2022/01/16 10:06:19;;;;;;;17.33;9.25;;;12.60;99.90;;;;;;5030023;28;20511;-59
2022/01/16 10:09:22;;;;;;;13.45;8.18;;;12.60;99.90;;;;;;5029400;28;20040;-59
2022/01/16 10:12:27;;;;;;;20.83;11.95;;;12.60;99.90;;;;;;5029923;28;20040;-59
2022/01/16 10:15:31;;;;;;;19.42;10.55;;;12.60;99.90;;;;;;5029597;28;20049;-59
2022/01/16 10:18:39;;;;;;;23.23;10.60;;;12.70;99.90;;;;;;5028974;28;20065;-58
2022/01/16 10:21:44;;;;;;;17.73;11.15;;;12.70;99.90;;;;;;5029620;28;20060;-58
2022/01/16 10:24:52;;;;;;;20.65;9.52;;;12.80;99.90;;;;;;5029312;28;20048;-57
2022/01/16 10:27:56;;;;;;;13.93;7.18;;;12.90;99.90;;;;;;5029259;28;20048;-59
2022/01/16 10:31:02;;;;;;;10.18;5.70;;;13.00;99.90;;;;;;5029442;28;20531;-58
2022/01/16 10:34:26;;;;;;;11.27;5.80;;;13.00;99.90;;;;;;5029565;28;20053;-60
2022/01/16 10:37:33;;;;;;;10.15;5.82;;;12.80;99.90;;;;;;5028825;28;20420;-58
2022/01/16 10:40:40;;;;;;;13.10;7.60;;;12.80;99.90;;;;;;5029462;28;20052;-59
2022/01/16 10:43:46;;;;;;;20.38;12.48;;;12.70;99.90;;;;;;5029163;28;20048;-57
2022/01/16 10:46:50;;;;;;;10.85;6.68;;;12.70;99.90;;;;;;5029117;28;20048;-59
2022/01/16 10:50:18;;;;;;;16.02;6.43;;;12.60;99.90;;;;;;5028514;28;20056;-59
2022/01/16 10:53:27;;;;;;;11.20;5.28;;;12.50;99.90;;;;;;5029318;28;20060;-57
2022/01/16 10:56:34;;;;;;;11.25;4.72;;;12.80;99.90;;;;;;5028911;28;20040;-59
2022/01/16 10:59:39;;;;;;;14.65;6.60;;;12.80;99.90;;;;;;5039084;28;20044;-58
2022/01/16 11:02:49;;;;;;;12.43;6.65;;;12.70;99.90;;;;;;5028971;28;20400;-59
2022/01/16 11:05:55;;;;;;;8.88;5.47;;;12.60;99.90;;;;;;5028814;28;20984;-57
2022/01/16 11:09:03;;;;;;;13.27;6.10;;;12.80;99.90;;;;;;5028258;28;20038;-58
2022/01/16 11:12:07;;;;;;;10.95;4.93;;;13.00;99.90;;;;;;5029201;28;20041;-60
2022/01/16 11:15:11;;;;;;;7.47;4.50;;;13.60;99.90;;;;;;5028654;28;20056;-58
2022/01/16 11:18:17;;;;;;;11.23;6.10;;;14.00;99.90;;;;;;5028569;28;20061;-57
2022/01/16 11:21:31;;;;;;;10.68;4.88;;;14.70;99.90;;;;;;5028678;28;20427;-57
2022/01/16 11:24:58;;;;;;;9.32;5.10;;;15.50;99.90;;;;;;5028639;28;20041;-59
2022/01/16 11:28:08;;;;;;;6.35;4.18;;;16.10;99.90;;;;;;5028602;28;20045;-57
2022/01/16 11:31:14;;;;;;;11.38;5.10;;;19.20;99.10;;;;;;5029217;28;20045;-58
2022/01/16 11:34:19;;;;;;;13.88;4.65;;;20.10;96.60;;;;;;5029667;28;20487;-58
2022/01/16 11:37:23;;;;;;;11.68;5.00;;;20.70;95.70;;;;;;5029264;28;20044;-60
2022/01/16 11:40:47;;;;;;;8.32;4.13;;;21.40;94.50;;;;;;5032537;28;20052;-58
2022/01/16 11:43:53;;;;;;;8.32;4.05;;;22.00;93.30;;;;;;5032559;28;20053;-58
2022/01/16 11:47:06;;;;;;;12.65;4.40;;;23.00;91.40;;;;;;5032126;28;20037;-57
2022/01/16 11:50:12;;;;;;;6.38;3.80;;;24.20;89.80;;;;;;5031351;28;20048;-60
2022/01/16 11:53:54;;;;;;;6.38;3.50;;;26.60;84.30;;;;;;5032309;28;20056;-57
2022/01/16 11:57:24;;;;;;;6.70;3.30;;;29.30;77.20;;;;;;5031959;28;20037;-59
2022/01/16 12:00:48;;;;;;;5.75;3.75;;;30.70;70.80;;;;;;5032059;28;20037;-60
2022/01/16 12:03:52;;;;;;;5.97;3.60;;;30.90;67.90;;;;;;5031975;28;20030;-60
2022/01/16 12:07:13;;;;;;;8.10;3.50;;;30.90;67.00;;;;;;5031809;28;20519;-60
2022/01/16 12:10:44;;;;;;;7.28;4.20;;;30.30;65.30;;;;;;5030943;28;20415;-58
2022/01/16 12:13:50;;;;;;;6.78;3.20;;;30.90;64.90;;;;;;5032292;28;20369;-60
2022/01/16 12:16:55;;;;;;;7.65;3.83;;;29.20;64.10;;;;;;5031796;28;20030;-60
2022/01/16 12:20:09;;;;;;;7.00;4.15;;;28.10;65.90;;;;;;5031435;28;20056;-59
2022/01/16 12:23:13;;;;;;;7.40;3.35;;;26.30;67.60;;;;;;5032111;28;20338;-58
2022/01/16 12:26:35;;;;;;;8.82;4.07;;;26.40;68.80;;;;;;5031070;28;20041;-58
2022/01/16 12:30:17;;;;;;;7.60;3.67;;;28.00;67.20;;;;;;5030522;28;20037;-59
2022/01/16 12:33:29;;;;;;;5.82;3.90;;;29.60;66.10;;;;;;5031283;28;20041;-58
2022/01/16 12:36:34;;;;;;;6.88;3.92;;;29.70;65.10;;;;;;5030875;28;20412;-58
2022/01/16 12:39:42;;;;;;;11.27;5.47;;;28.00;65.30;;;;;;5030837;28;20068;-59
2022/01/16 12:42:48;;;;;;;12.48;5.35;;;26.10;67.30;;;;;;5031214;28;20404;-59
2022/01/16 12:45:53;;;;;;;9.93;7.63;;;24.80;68.70;;;;;;5031346;28;20412;-56
2022/01/16 12:49:02;;;;;;;8.57;5.50;;;23.60;71.40;;;;;;5030390;28;20053;-59
2022/01/16 12:52:07;;;;;;;12.05;6.60;;;22.80;72.20;;;;;;5031447;28;20034;-59
2022/01/16 12:55:11;;;;;;;12.48;5.05;;;21.60;75.30;;;;;;5031334;28;20511;-59
2022/01/16 12:58:22;;;;;;;8.02;5.03;;;20.60;77.10;;;;;;5030506;28;20507;-57
2022/01/16 13:01:26;;;;;;;12.00;5.50;;;19.80;78.70;;;;;;5031102;28;20040;-55
2022/01/16 13:04:31;;;;;;;19.90;10.50;;;18.90;80.60;;;;;;5031033;28;20048;-58
2022/01/16 13:07:42;;;;;;;18.98;7.88;;;18.50;82.10;;;;;;5029721;28;20454;-57
2022/01/16 13:10:46;;;;;;;11.63;6.20;;;18.70;82.60;;;;;;5030325;28;20044;-58
2022/01/16 13:13:51;;;;;;;12.25;6.60;;;20.50;81.20;;;;;;5030534;28;20550;-58
2022/01/16 13:17:01;;;;;;;8.02;5.18;;;20.70;80.80;;;;;;5030566;28;20040;-58
2022/01/16 13:20:14;;;;;;;13.45;6.47;;;21.60;77.50;;;;;;5029603;28;20053;-58
2022/01/16 13:23:17;;;;;;;13.25;6.35;;;20.40;78.60;;;;;;5030663;28;20048;-58
2022/01/16 13:26:28;;;;;;;11.98;5.78;;;19.50;81.20;;;;;;5030371;28;20522;-57
2022/01/16 13:29:34;;;;;;;10.88;6.85;;;18.10;83.10;;;;;;5029949;28;20048;-58
2022/01/16 13:32:42;;;;;;;18.70;9.60;;;17.80;85.90;;;;;;5030548;28;20065;-53
2022/01/16 13:35:46;;;;;;;11.45;6.30;;;17.60;86.80;;;;;;5030689;28;20401;-56
2022/01/16 13:38:49;;;;;;;9.93;5.35;;;17.40;87.80;;;;;;5029575;28;20053;-57
2022/01/16 13:42:17;;;;;;;13.02;6.63;;;17.10;87.90;;;;;;5029476;28;20594;-57
2022/01/16 13:45:35;;;;;;;13.63;7.05;;;16.50;90.00;;;;;;5030244;28;20056;-57
2022/01/16 13:48:41;;;;;;;12.48;5.55;;;16.50;90.60;;;;;;5029190;28;20052;-56
2022/01/16 13:51:59;;;;;;;8.43;5.68;;;16.60;91.20;;;;;;5030024;28;20045;-57
2022/01/16 13:55:06;;;;;;;14.77;9.05;;;17.70;90.40;;;;;;5030236;28;20045;-58
2022/01/16 13:58:32;;;;;;;8.70;4.95;;;18.80;88.80;;;;;;5029121;28;20051;-56
2022/01/16 14:01:39;;;;;;;8.57;4.30;;;19.00;86.20;;;;;;5029031;28;20400;-58
2022/01/16 14:04:45;;;;;;;10.85;5.93;;;18.60;86.70;;;;;;5030012;28;20037;-57
2022/01/16 14:07:49;;;;;;;12.65;5.63;;;18.30;87.10;;;;;;5029709;28;20037;-57
2022/01/16 14:11:06;;;;;;;13.80;7.68;;;17.90;88.80;;;;;;5029520;28;20045;-57
2022/01/16 14:14:12;;;;;;;15.63;5.45;;;18.30;89.10;;;;;;5029585;28;20397;-58
2022/01/16 14:17:39;;;;;;;7.75;4.47;;;18.50;89.50;;;;;;5029770;28;20045;-58
2022/01/16 14:20:50;;;;;;;9.07;5.53;;;20.30;85.20;;;;;;5029805;28;20052;-58
2022/01/16 14:23:54;;;;;;;7.78;4.53;;;22.40;81.30;;;;;;5029413;28;20044;-57
2022/01/16 14:27:20;;;;;;;11.50;5.93;;;23.10;77.70;;;;;;5029571;28;20056;-58
2022/01/16 14:30:24;;;;;;;10.27;6.05;;;22.80;77.70;;;;;;5028623;28;20534;-57
2022/01/16 14:33:31;;;;;;;12.93;5.55;;;23.30;77.00;;;;;;5029624;28;20061;-57
2022/01/16 14:36:34;;;;;;;10.05;6.13;;;23.80;76.10;;;;;;5029446;28;20040;-59
2022/01/16 14:39:39;;;;;;;8.63;4.53;;;24.10;75.30;;;;;;5028717;28;20060;-55
2022/01/16 14:42:45;;;;;;;22.60;14.55;;;23.90;75.10;;;;;;5029470;28;20052;-57
2022/01/16 14:45:49;;;;;;;37.10;22.38;;;23.30;75.60;;;;;;5029634;28;20076;-58
2022/01/16 14:48:53;;;;;;;32.08;22.42;;;22.70;76.50;;;;;;5028505;28;20052;-57
2022/01/16 14:51:57;;;;;;;11.80;5.80;;;22.40;76.50;;;;;;5040308;28;20044;-57
2022/01/16 14:55:01;;;;;;;12.35;5.93;;;22.70;76.10;;;;;;5029615;28;20060;-53
2022/01/16 14:58:06;;;;;;;10.88;6.47;;;22.50;76.20;;;;;;5028765;28;20400;-57
2022/01/16 15:01:16;;;;;;;11.90;7.78;;;22.10;76.60;;;;;;5029288;28;20048;-57
2022/01/16 15:04:20;;;;;;;27.52;20.35;;;21.90;76.90;;;;;;5028657;28;20056;-54
2022/01/16 15:07:25;;;;;;;17.55;12.60;;;21.60;77.50;;;;;;5029519;28;20053;-57
2022/01/16 15:10:31;;;;;;;7.97;4.80;;;21.40;78.10;;;;;;5028811;28;20385;-58
2022/01/16 15:13:37;;;;;;;9.88;4.68;;;21.30;77.90;;;;;;5031940;28;20048;-55
2022/01/16 15:16:42;;;;;;;14.90;8.27;;;20.20;79.30;;;;;;5032977;28;20404;-58
2022/01/16 15:19:48;;;;;;;13.40;6.70;;;18.60;83.20;;;;;;5032174;28;20048;-55
2022/01/16 15:22:54;;;;;;;18.38;10.52;;;17.30;86.30;;;;;;5032764;28;20515;-57
2022/01/16 15:26:00;;;;;;;15.13;7.82;;;16.40;88.60;;;;;;5032759;28;20040;-58
2022/01/16 15:29:05;;;;;;;28.65;17.35;;;15.80;90.80;;;;;;5031434;28;20060;-57
2022/01/16 15:32:10;;;;;;;19.23;9.82;;;15.20;91.50;;;;;;5065412;22;20416;-55
2022/01/16 15:35:16;;;;;;;270.90;193.05;;;14.70;92.40;;;;;;5052606;28;20048;-55
2022/01/16 15:38:27;;;;;;;22.58;13.98;;;14.10;93.50;;;;;;5051772;28;20048;-53
2022/01/16 15:41:31;;;;;;;19.45;9.50;;;14.00;94.10;;;;;;5052817;28;20060;-52
2022/01/16 15:44:36;;;;;;;15.82;8.48;;;13.60;94.70;;;;;;5052895;28;20043;-52
2022/01/16 15:47:46;;;;;;;32.00;19.73;;;13.20;95.50;;;;;;5052722;28;20044;-53
2022/01/16 15:50:51;;;;;;;14.25;8.13;;;12.90;96.60;;;;;;5051432;28;20075;-54
2022/01/16 15:53:56;;;;;;;18.98;12.32;;;12.60;97.90;;;;;;5052486;28;20403;-56
2022/01/16 15:57:02;;;;;;;46.10;29.95;;;12.40;98.60;;;;;;5052226;28;20052;-55
2022/01/16 16:00:08;;;;;;;20.23;12.63;;;12.20;99.70;;;;;;5051321;28;20515;-53
2022/01/16 16:03:15;;;;;;;14.88;6.13;;;12.00;99.90;;;;;;5050922;28;20048;-53
2022/01/16 16:06:20;;;;;;;22.20;11.55;;;11.70;99.90;;;;;;5052069;28;20040;-53
2022/01/16 16:09:24;;;;;;;27.65;12.48;;;11.60;99.90;;;;;;5050929;28;20355;-53
2022/01/16 16:12:28;;;;;;;23.25;12.63;;;11.30;99.90;;;;;;5052037;28;20056;-53
2022/01/16 16:15:32;;;;;;;25.90;14.10;;;11.10;99.90;;;;;;5051783;28;20534;-53
2022/01/16 16:18:36;;;;;;;33.13;16.90;;;11.00;99.90;;;;;;5051234;28;20044;-53
2022/01/16 16:21:40;;;;;;;28.60;14.32;;;10.90;99.90;;;;;;5051482;28;20040;-55
2022/01/16 16:24:44;;;;;;;24.75;12.60;;;10.90;99.90;;;;;;5051128;28;20039;-55
2022/01/16 16:27:50;;;;;;;33.78;15.45;;;10.80;99.90;;;;;;5050719;28;20048;-56
2022/01/16 16:30:54;;;;;;;19.77;11.07;;;10.80;99.90;;;;;;5050145;28;20056;-56
2022/01/16 16:33:58;;;;;;;18.10;9.18;;;10.70;99.90;;;;;;5051537;28;20047;-55
2022/01/16 16:37:03;;;;;;;15.45;9.05;;;10.70;99.90;;;;;;5051446;28;20039;-55
2022/01/16 16:40:08;;;;;;;30.90;14.73;;;10.70;99.90;;;;;;5050707;28;20044;-55
2022/01/16 16:43:15;;;;;;;19.55;13.10;;;10.70;99.90;;;;;;5051507;28;20523;-56